Dades meteomassalio
Diari Summary for Febrer 12, 2018 Units:  Metric    English   Both
« Previous Day
Next Day »
Diari Semanal Mensual Anual Personalitzat
  Maxima: Minima: Mijana:
Temperatura: -17.8 °C -16.2 °C -13.6 °C
Rosada: -17.8 °C -19.4 °C -16.9 °C
Humitat: Humidity % 44 % 67 %
Velocitat del vent: 0 km/h 23.8 km/h 52.8 km/h
Racha vent: 0 km/h - -
Vent:- - NW
Pressio: 0 hPa 34496.6 hPa -
Pluja: 7.62 mm    
Historical Graphs
 
 
Tabular Data for Febrer 12, 2018
Time Temperature Dew Point Pressure Wind Wind Speed Wind Gust Humidity Rainfall Rate (Hourly) solar Conditions
-17.8 °C -17.8 °C 0 hPa Calm     Humidity % 0 mm SolarRadiationWatts/m^2 W/m2 Conditions
00:03 -12.2 °C -13.9 °C 34533.8 hPa NNW 53.6 km/h 53.6 km/h 81 % 0 mm 0.0 W/m2 CLR
00:08 -12.2 °C -13.8 °C 34533.8 hPa NNW 44.7 km/h 44.7 km/h 82 % 0 mm 0.0 W/m2 CLR
00:13 -12.6 °C -14.2 °C 34533.8 hPa NNW 41.7 km/h 41.7 km/h 82 % 0 mm 0.0 W/m2 CLR
00:18 -12.6 °C -14.1 °C 34533.8 hPa NNW 41.7 km/h 41.7 km/h 83 % 0 mm 0.0 W/m2 CLR
00:23 -12.6 °C -14.2 °C 34533.8 hPa NNW 44.7 km/h 44.7 km/h 82 % 0 mm 0.0 W/m2 CLR
00:28 -12.6 °C -14.2 °C 34533.8 hPa NW 38.8 km/h 38.8 km/h 82 % 0 mm 0.0 W/m2 CLR
00:33 -12.6 °C -14.2 °C 34533.8 hPa NNW 35.7 km/h 35.7 km/h 82 % 0 mm 0.0 W/m2 CLR
00:38 -12.6 °C -14.1 °C 34533.8 hPa NW 38.8 km/h 38.8 km/h 83 % 0 mm 0.0 W/m2 CLR
00:43 -12.6 °C -13.9 °C 34533.8 hPa NW 50.7 km/h 50.7 km/h 84 % 0 mm 0.0 W/m2 CLR
00:48 -12.6 °C -13.9 °C 34533.8 hPa NNW 41.7 km/h 41.7 km/h 84 % 0 mm 0.0 W/m2 CLR
00:53 -12.6 °C -13.9 °C 34533.8 hPa North 47.6 km/h 47.6 km/h 84 % 0 mm 0.0 W/m2 CLR
00:58 -12.6 °C -14.1 °C 34533.8 hPa NW 33.6 km/h 33.6 km/h 83 % 0 mm 0.0 W/m2 CLR
01:03 -12.6 °C -14.1 °C 34533.8 hPa WNW 41.7 km/h 41.7 km/h 83 % 0 mm 0.0 W/m2 CLR
01:08 -12.6 °C -14.2 °C 34533.8 hPa NW 35.7 km/h 35.7 km/h 82 % 0 mm 0.0 W/m2 CLR
01:13 -12.6 °C -14.3 °C 34533.8 hPa NW 62.1 km/h 62.1 km/h 81 % 0 mm 0.0 W/m2 CLR
01:18 -12.6 °C -14.3 °C 34533.8 hPa NW 62.6 km/h 62.6 km/h 80 % 0 mm 0.0 W/m2 CLR
01:23 -12.6 °C -14.3 °C 34533.8 hPa WNW 50.7 km/h 50.7 km/h 80 % 0 mm 0.0 W/m2 CLR
01:28 -12.8 °C -14.7 °C 34533.8 hPa NW 47.6 km/h 47.6 km/h 80 % 0 mm 0.0 W/m2 CLR
01:33 -12.8 °C -14.7 °C 34533.8 hPa NW 47.6 km/h 47.6 km/h 80 % 0 mm 0.0 W/m2 CLR
01:38 -12.8 °C -14.8 °C 34544 hPa NNW 47.6 km/h 47.6 km/h 79 % 0 mm 0.0 W/m2 CLR
01:43 -12.8 °C -14.8 °C 34544 hPa WNW 44.7 km/h 44.7 km/h 79 % 0 mm 0.0 W/m2 CLR
01:48 -12.8 °C -14.8 °C 34544 hPa NW 44.7 km/h 44.7 km/h 79 % 0 mm 0.0 W/m2 CLR
01:53 -12.8 °C -14.8 °C 34533.8 hPa NW 57 km/h 57 km/h 79 % 0 mm 0.0 W/m2 CLR
01:58 -12.8 °C -14.6 °C 34544 hPa NNW 46.7 km/h 46.7 km/h 81 % 0 mm 0.0 W/m2 CLR
02:03 -12.8 °C -14.4 °C 34544 hPa NW 50.7 km/h 50.7 km/h 82 % 0 mm 0.0 W/m2 CLR
02:08 -13.2 °C -14.8 °C 34544 hPa NW 50.7 km/h 50.7 km/h 82 % 0 mm 0.0 W/m2 CLR
02:13 -13.2 °C -14.7 °C 34533.8 hPa NW 47.6 km/h 47.6 km/h 83 % 0 mm 0.0 W/m2 CLR
02:18 -13.2 °C -14.8 °C 34533.8 hPa WNW 32.8 km/h 32.8 km/h 82 % 0 mm 0.0 W/m2 CLR
02:23 -13.2 °C -14.8 °C 34533.8 hPa NW 44.7 km/h 44.7 km/h 82 % 0 mm 0.0 W/m2 CLR
02:28 -13.2 °C -14.8 °C 34544 hPa NW 50.7 km/h 50.7 km/h 82 % 0 mm 0.0 W/m2 CLR
02:33 -13.2 °C -14.8 °C 34544 hPa WNW 47.6 km/h 47.6 km/h 81 % 0 mm 0.0 W/m2 CLR
02:38 -13.2 °C -14.8 °C 34544 hPa NW 38.8 km/h 38.8 km/h 81 % 0 mm 0.0 W/m2 CLR
02:43 -13.2 °C -14.9 °C 34544 hPa NNW 44.7 km/h 44.7 km/h 80 % 0 mm 0.0 W/m2 CLR
02:48 -13.2 °C -15.1 °C 34544 hPa NW 59.5 km/h 59.5 km/h 79 % 0 mm 0.0 W/m2 CLR
02:53 -13.2 °C -15.1 °C 34533.8 hPa WNW 59.5 km/h 59.5 km/h 79 % 0 mm 0.0 W/m2 CLR
02:58 -13.2 °C -15.1 °C 34533.8 hPa NW 68.6 km/h 68.6 km/h 79 % 0 mm 0.0 W/m2 CLR
03:03 -13.2 °C -15.1 °C 34544 hPa NNW 74.5 km/h 74.5 km/h 79 % 7.62 mm 0.0 W/m2 RA
03:08 -13.2 °C -15.1 °C 34533.8 hPa WNW 74.5 km/h 74.5 km/h 79 % 7.62 mm 0.0 W/m2
03:13 -13.2 °C -15.2 °C 34533.8 hPa WNW 62.6 km/h 62.6 km/h 78 % 7.62 mm 0.0 W/m2 CLR
03:18 -13.2 °C -15.1 °C 34533.8 hPa NW 65.5 km/h 65.5 km/h 79 % 7.62 mm 0.0 W/m2 CLR
03:23 -13.2 °C -15.2 °C 34533.8 hPa NW 46.7 km/h 50.5 km/h 78 % 7.62 mm 0.0 W/m2 CLR
03:28 -13.2 °C -15.2 °C 34533.8 hPa NW 50.7 km/h 50.7 km/h 78 % 7.62 mm 0.0 W/m2 CLR
03:33 -13.4 °C -15.3 °C 34533.8 hPa NNW 62.6 km/h 62.6 km/h 79 % 7.62 mm 0.0 W/m2 CLR
03:39 -13.4 °C -15.3 °C 34533.8 hPa NW 47.6 km/h 47.6 km/h 79 % 7.62 mm 0.0 W/m2 CLR
03:43 -13.4 °C -15.3 °C 34533.8 hPa NW 59.5 km/h 59.5 km/h 79 % 7.62 mm 0.0 W/m2 CLR
03:49 -13.4 °C -15.2 °C 34533.8 hPa WNW 53.6 km/h 53.6 km/h 80 % 7.62 mm 0.0 W/m2 CLR
03:54 -13.4 °C -15.2 °C 34533.8 hPa NW 47.6 km/h 47.6 km/h 80 % 7.62 mm 0.0 W/m2 CLR
03:59 -13.4 °C -15.2 °C 34533.8 hPa NW 44.7 km/h 44.7 km/h 80 % 7.62 mm 0.0 W/m2 CLR
04:04 -13.4 °C -15.2 °C 34533.8 hPa NNW 59.5 km/h 59.5 km/h 80 % 0 mm 0.0 W/m2 CLR
04:09 -13.4 °C -15.3 °C 34533.8 hPa NW 44.7 km/h 44.7 km/h 79 % 0 mm 0.0 W/m2 CLR
04:14 -13.4 °C -15.2 °C 34533.8 hPa WNW 50.7 km/h 50.7 km/h 80 % 0 mm 0.0 W/m2 CLR
04:19 -13.4 °C -15.3 °C 34533.8 hPa NW 41.7 km/h 41.7 km/h 79 % 0 mm 0.0 W/m2 CLR
04:24 -13.4 °C -15.3 °C 34533.8 hPa NW 50.7 km/h 50.7 km/h 79 % 0 mm 0.0 W/m2 CLR
04:29 -13.4 °C -15.3 °C 34533.8 hPa NW 41.7 km/h 41.7 km/h 79 % 0 mm 0.0 W/m2 CLR
04:34 -13.4 °C -15.4 °C 34533.8 hPa NW 35.7 km/h 35.7 km/h 78 % 0 mm 0.0 W/m2 CLR
04:39 -13.4 °C -15.4 °C 34533.8 hPa NW 49.2 km/h 49.2 km/h 78 % 0 mm 0.0 W/m2 CLR
04:44 -13.4 °C -15.4 °C 34533.8 hPa NNW 47.6 km/h 47.6 km/h 78 % 0 mm 0.0 W/m2 CLR
04:49 -13.4 °C -15.4 °C 34533.8 hPa NW 35.7 km/h 35.7 km/h 78 % 0 mm 0.0 W/m2 CLR
04:54 -13.4 °C -15.3 °C 34533.8 hPa West 62.6 km/h 62.6 km/h 79 % 0 mm 0.0 W/m2 CLR
04:59 -13.4 °C -15.3 °C 34533.8 hPa NW 50.7 km/h 50.7 km/h 79 % 0 mm 0.0 W/m2 CLR
05:04 -13.4 °C -15.3 °C 34533.8 hPa WNW 56.6 km/h 56.6 km/h 79 % 0 mm 0.0 W/m2 CLR
05:09 -13.4 °C -15.3 °C 34520.3 hPa NW 47.6 km/h 47.6 km/h 79 % 0 mm 0.0 W/m2 CLR
05:14 -13.4 °C -15.3 °C 34520.3 hPa NW 50.7 km/h 50.7 km/h 79 % 0 mm 0.0 W/m2 CLR
05:19 -13.8 °C -15.7 °C 34533.8 hPa NW 56.6 km/h 56.6 km/h 79 % 0 mm 0.0 W/m2 CLR
05:24 -13.8 °C -15.7 °C 34520.3 hPa NW 59.5 km/h 59.5 km/h 79 % 0 mm 0.0 W/m2 CLR
05:29 -13.8 °C -15.7 °C 34520.3 hPa NW 44.7 km/h 44.7 km/h 78 % 0 mm 0.0 W/m2 CLR
05:34 -13.8 °C -15.7 °C 34520.3 hPa NNW 54.4 km/h 54.4 km/h 79 % 0 mm 0.0 W/m2 CLR
05:39 -13.8 °C -15.7 °C 34520.3 hPa NNW 59.5 km/h 59.5 km/h 78 % 0 mm 0.0 W/m2 CLR
05:44 -13.8 °C -15.7 °C 34520.3 hPa NW 50.7 km/h 50.7 km/h 79 % 0 mm 0.0 W/m2 CLR
05:49 -13.8 °C -15.7 °C 34520.3 hPa NW 62.6 km/h 62.6 km/h 78 % 0 mm 0.0 W/m2 CLR
05:54 -13.8 °C -15.7 °C 34510.1 hPa NW 47.6 km/h 47.6 km/h 78 % 0 mm 0.0 W/m2 CLR
05:59 -14.1 °C -16.1 °C 34510.1 hPa NNW 56.6 km/h 56.6 km/h 78 % 0 mm 0.0 W/m2 CLR
06:04 -13.8 °C -15.7 °C 34510.1 hPa NW 57 km/h 57 km/h 78 % 0 mm 0.0 W/m2 CLR
06:09 -13.8 °C -15.7 °C 34520.3 hPa NW 50.7 km/h 50.7 km/h 78 % 0 mm 0.0 W/m2 CLR
06:14 -13.8 °C -15.7 °C 34510.1 hPa NNW 53.6 km/h 53.6 km/h 78 % 0 mm 0.0 W/m2 CLR
06:19 -13.8 °C -15.9 °C 34510.1 hPa NW 50.7 km/h 50.7 km/h 77 % 0 mm 0.0 W/m2 CLR
06:24 -13.8 °C -15.9 °C 34510.1 hPa NW 59.5 km/h 59.5 km/h 77 % 0 mm 0.0 W/m2 CLR
06:29 -13.8 °C -15.9 °C 34510.1 hPa NNW 50.7 km/h 50.7 km/h 77 % 0 mm 0.0 W/m2 CLR
06:34 -13.8 °C -15.9 °C 34510.1 hPa NW 50.7 km/h 50.7 km/h 77 % 0 mm 0.0 W/m2 CLR
06:39 -13.8 °C -15.9 °C 34510.1 hPa NW 56.6 km/h 56.6 km/h 77 % 0 mm 0.0 W/m2 CLR
06:44 -13.8 °C -15.9 °C 34510.1 hPa NW 54.4 km/h 54.4 km/h 77 % 0 mm 0.0 W/m2 CLR
06:49 -14.1 °C -16.3 °C 34510.1 hPa NW 68.6 km/h 68.6 km/h 76 % 0 mm 0.0 W/m2 CLR
06:54 -14.1 °C -16.3 °C 34510.1 hPa NW 65.5 km/h 65.5 km/h 76 % 0 mm 0.0 W/m2 CLR
06:59 -14.1 °C -16.3 °C 34510.1 hPa NNW 50.7 km/h 50.7 km/h 76 % 0 mm 0.0 W/m2 CLR
07:04 -14.1 °C -16.3 °C 34520.3 hPa NNW 53.6 km/h 53.6 km/h 76 % 0 mm 0.0 W/m2 CLR
07:09 -14.1 °C -16.3 °C 34520.3 hPa NNW 71.5 km/h 71.5 km/h 75 % 0 mm 0.0 W/m2 CLR
07:14 -14.1 °C -16.3 °C 34520.3 hPa NNW 50.7 km/h 50.7 km/h 76 % 0 mm 0.0 W/m2 CLR
07:19 -14.1 °C -16.3 °C 34520.3 hPa NW 47.6 km/h 47.6 km/h 76 % 0 mm 0.0 W/m2 CLR
07:24 -14.1 °C -16.3 °C 34520.3 hPa NNW 65.5 km/h 65.5 km/h 76 % 0 mm 0.0 W/m2 CLR
07:29 -14.1 °C -16.3 °C 34520.3 hPa NNW 59.5 km/h 59.5 km/h 76 % 0 mm 0.0 W/m2 CLR
07:34 -14.4 °C -16.6 °C 34520.3 hPa North 67.3 km/h 67.3 km/h 76 % 0 mm 0.0 W/m2 CLR
07:39 -14.4 °C -16.7 °C 34520.3 hPa WNW 49.2 km/h 49.2 km/h 75 % 0 mm 0.0 W/m2 CLR
07:44 -14.4 °C -16.7 °C 34520.3 hPa NNW 53.6 km/h 53.6 km/h 75 % 0 mm 0.0 W/m2 CLR
07:49 -14.4 °C -16.7 °C 34520.3 hPa NNW 47.6 km/h 47.6 km/h 75 % 0 mm 0.0 W/m2 OVC
07:54 -14.4 °C -16.7 °C 34533.8 hPa NNW 59.5 km/h 59.5 km/h 75 % 0 mm 0.0 W/m2 OVC
07:59 -14.4 °C -16.7 °C 34520.3 hPa NW 50.7 km/h 50.7 km/h 75 % 0 mm 0.0 W/m2 OVC
08:04 -14.4 °C -16.7 °C 34533.8 hPa NNW 65.5 km/h 65.5 km/h 75 % 0 mm 0.0 W/m2 OVC
08:09 -14.4 °C -16.8 °C 34533.8 hPa NNW 56.6 km/h 56.6 km/h 74 % 0 mm 5.0 W/m2 OVC
08:14 -14.4 °C -16.7 °C 34520.3 hPa NNW 54.4 km/h 54.4 km/h 75 % 0 mm 11.0 W/m2 BKN
08:19 -14.4 °C -16.7 °C 34533.8 hPa NW 50.7 km/h 50.7 km/h 75 % 0 mm 16.0 W/m2 BKN
08:24 -14.4 °C -16.7 °C 34533.8 hPa WNW 68.6 km/h 68.6 km/h 75 % 0 mm 23.0 W/m2 BKN
08:29 -14.4 °C -16.7 °C 34533.8 hPa North 50.7 km/h 50.7 km/h 75 % 0 mm 28.0 W/m2 BKN
08:34 -14.4 °C -16.7 °C 34544 hPa NNW 50.7 km/h 50.7 km/h 75 % 0 mm 33.0 W/m2 BKN
08:39 -14.4 °C -16.7 °C 34544 hPa NW 50.7 km/h 50.7 km/h 75 % 0 mm 40.0 W/m2 BKN
08:44 -14.4 °C -16.8 °C 34544 hPa NW 51.8 km/h 51.8 km/h 74 % 0 mm 44.0 W/m2 BKN
08:49 -14.4 °C -16.8 °C 34544 hPa NNW 50.7 km/h 50.7 km/h 74 % 0 mm 47.0 W/m2 SCT
08:54 -14.4 °C -16.8 °C 34544 hPa NW 68.6 km/h 68.6 km/h 74 % 0 mm 51.0 W/m2 SCT
08:59 -14.4 °C -16.8 °C 34544 hPa NW 62.6 km/h 62.6 km/h 74 % 0 mm 58.0 W/m2 SCT
09:04 -14.4 °C -16.8 °C 34544 hPa NW 44.7 km/h 44.7 km/h 74 % 0 mm 72.0 W/m2 SCT
09:09 -14.4 °C -16.8 °C 34544 hPa NNW 41.4 km/h 41.4 km/h 74 % 0 mm 76.0 W/m2 FEW
09:15 -14.4 °C -16.8 °C 34554.1 hPa NNW 46.7 km/h 46.7 km/h 74 % 0 mm 77.0 W/m2 FEW
09:19 -14.4 °C -16.8 °C 34554.1 hPa NW 59.5 km/h 59.5 km/h 74 % 0 mm 79.0 W/m2 FEW
09:24 -14.4 °C -16.8 °C 34554.1 hPa NNW 62.6 km/h 62.6 km/h 74 % 0 mm 84.0 W/m2 FEW
09:29 -14.4 °C -16.8 °C 34554.1 hPa NW 36.2 km/h 36.2 km/h 74 % 0 mm 91.0 W/m2 FEW
09:35 -14.4 °C -16.8 °C 34554.1 hPa North 50.7 km/h 50.7 km/h 74 % 0 mm 113.0 W/m2 CLR
09:40 -14.4 °C -16.8 °C 34554.1 hPa NW 32.8 km/h 32.8 km/h 74 % 0 mm 149.0 W/m2 CLR
09:45 -14.1 °C -16.6 °C 34554.1 hPa NW 80.5 km/h 80.5 km/h 73 % 0 mm 183.0 W/m2 CLR
09:50 -14.1 °C -16.6 °C 34554.1 hPa WNW 51.8 km/h 51.8 km/h 73 % 0 mm 174.0 W/m2 CLR
09:55 -14.1 °C -16.6 °C 34544 hPa NW 44.7 km/h 44.7 km/h 73 % 0 mm 160.0 W/m2 CLR
10:00 -14.1 °C -16.7 °C 34544 hPa NW 64.7 km/h 64.7 km/h 72 % 0 mm 174.0 W/m2 CLR
10:05 -14.1 °C -16.7 °C 34554.1 hPa NW 56.6 km/h 56.6 km/h 72 % 0 mm 181.0 W/m2 CLR
10:10 -14.1 °C -16.6 °C 34567.7 hPa NNW 44.7 km/h 45.1 km/h 73 % 0 mm 179.0 W/m2 CLR
10:15 -14.1 °C -16.7 °C 34567.7 hPa NW 65.5 km/h 65.5 km/h 72 % 0 mm 171.0 W/m2 CLR
10:20 -14.1 °C -16.7 °C 34567.7 hPa NW 53.6 km/h 53.6 km/h 72 % 0 mm 178.0 W/m2 CLR
10:25 -14.1 °C -16.8 °C 34567.7 hPa NNW 56.6 km/h 56.6 km/h 71 % 0 mm 220.0 W/m2 CLR
10:30 -13.8 °C -16.4 °C 34567.7 hPa NW 69.8 km/h 69.8 km/h 72 % 0 mm 218.0 W/m2 CLR
10:35 -13.8 °C -16.6 °C 34554.1 hPa NNW 68.6 km/h 68.6 km/h 70 % 0 mm 225.0 W/m2 CLR
10:40 -13.8 °C -16.6 °C 34554.1 hPa NW 62.6 km/h 62.6 km/h 70 % 0 mm 234.0 W/m2 CLR
10:45 -13.8 °C -16.7 °C 34567.7 hPa North 83.4 km/h 83.4 km/h 69 % 0 mm 243.0 W/m2 CLR
10:50 -13.8 °C -16.6 °C 34554.1 hPa North 62.6 km/h 62.6 km/h 70 % 0 mm 274.0 W/m2 CLR
10:55 -13.8 °C -16.6 °C 34567.7 hPa North 83.4 km/h 83.4 km/h 70 % 0 mm 301.0 W/m2 CLR
11:00 -13.4 °C -16.4 °C 34554.1 hPa NNW 68.6 km/h 68.6 km/h 69 % 0 mm 316.0 W/m2 CLR
11:05 -13.4 °C -16.4 °C 34554.1 hPa NNW 68.6 km/h 68.6 km/h 69 % 0 mm 309.0 W/m2 CLR
11:10 -13.4 °C -16.4 °C 34567.7 hPa North 68.6 km/h 68.6 km/h 69 % 0 mm 403.0 W/m2 CLR
11:15 -13.4 °C -16.4 °C 34554.1 hPa NW 62.6 km/h 62.6 km/h 69 % 0 mm 399.0 W/m2 CLR
11:20 -13.4 °C -16.6 °C 34554.1 hPa NNW 71.5 km/h 71.5 km/h 68 % 0 mm 399.0 W/m2 CLR
11:25 -13.2 °C -16.3 °C 34567.7 hPa NNW 50.7 km/h 50.7 km/h 67 % 0 mm 399.0 W/m2 CLR
11:30 -13.2 °C -16.5 °C 34567.7 hPa NW 50.7 km/h 50.7 km/h 66 % 0 mm 366.0 W/m2 CLR
11:31 -13.2 °C -16.5 °C 34567.7 hPa NW 56.6 km/h 56.6 km/h 66 % 0 mm 338.0 W/m2 CLR
11:36 -13.2 °C -16.5 °C 34554.1 hPa NW 59.5 km/h 59.5 km/h 66 % 0 mm 415.0 W/m2 CLR
11:41 -13.2 °C -16.5 °C 34554.1 hPa NNW 71.5 km/h 71.5 km/h 66 % 0 mm 497.0 W/m2 CLR
11:46 -12.8 °C -16.3 °C 34554.1 hPa NW 64.7 km/h 64.7 km/h 65 % 0 mm 585.0 W/m2 CLR
11:51 -12.8 °C -16.3 °C 34567.7 hPa NW 68.6 km/h 68.6 km/h 65 % 0 mm 563.0 W/m2 CLR
11:56 -12.6 °C -16.3 °C 34567.7 hPa NNW 68.6 km/h 68.6 km/h 63 % 0 mm 563.0 W/m2 CLR
12:01 -12.6 °C -16.4 °C 34567.7 hPa North 69.8 km/h 69.8 km/h 62 % 0 mm 513.0 W/m2 CLR
12:06 -12.6 °C -16.3 °C 34567.7 hPa NNW 74.5 km/h 74.5 km/h 63 % 0 mm 589.0 W/m2 CLR
12:11 -12.6 °C -16.3 °C 34554.1 hPa NNW 50.7 km/h 50.7 km/h 63 % 0 mm 552.0 W/m2 CLR
12:16 -12.6 °C -16.5 °C 34554.1 hPa North 65.5 km/h 65.5 km/h 61 % 0 mm 526.0 W/m2 CLR
12:21 -12.6 °C -16.4 °C 34554.1 hPa North 68.6 km/h 68.6 km/h 62 % 0 mm 534.0 W/m2 CLR
12:26 -12.6 °C -16.5 °C 34567.7 hPa North 65.5 km/h 65.5 km/h 61 % 0 mm 554.0 W/m2 CLR
12:31 -12.6 °C -16.4 °C 34554.1 hPa NNW 62.6 km/h 62.6 km/h 62 % 0 mm 445.0 W/m2 CLR
12:36 -12.6 °C -16.4 °C 34554.1 hPa NW 65.5 km/h 65.5 km/h 62 % 0 mm 388.0 W/m2 CLR
12:41 -12.6 °C -16.5 °C 34544 hPa North 68.6 km/h 68.6 km/h 61 % 0 mm 431.0 W/m2 CLR
12:46 -12.6 °C -16.4 °C 34554.1 hPa NNW 56.6 km/h 56.6 km/h 62 % 0 mm 520.0 W/m2 CLR
12:51 -12.6 °C -16.5 °C 34544 hPa NW 68.6 km/h 68.6 km/h 61 % 0 mm 408.0 W/m2 CLR
12:56 -12.6 °C -16.5 °C 34544 hPa NW 68.6 km/h 68.6 km/h 61 % 0 mm 552.0 W/m2 CLR
13:01 -12.6 °C -16.6 °C 34544 hPa NNW 59.5 km/h 59.5 km/h 60 % 0 mm 439.0 W/m2 CLR
13:06 -12.6 °C -16.6 °C 34544 hPa NNW 57 km/h 57 km/h 60 % 0 mm 454.0 W/m2 CLR
13:11 -12.6 °C -16.6 °C 34544 hPa North 59.5 km/h 59.5 km/h 60 % 0 mm 522.0 W/m2 CLR
13:16 -12.6 °C -16.9 °C 34544 hPa NNW 59.5 km/h 59.5 km/h 58 % 0 mm 429.0 W/m2 CLR
13:21 -12.6 °C -16.9 °C 34544 hPa North 44.7 km/h 44.7 km/h 58 % 0 mm 350.0 W/m2 CLR
13:26 -12.6 °C -16.8 °C 34533.8 hPa North 47.6 km/h 47.6 km/h 59 % 0 mm 619.0 W/m2 CLR
13:31 -12.2 °C -16.6 °C 34533.8 hPa NW 44.7 km/h 44.7 km/h 58 % 0 mm 612.0 W/m2 CLR
13:36 -11.9 °C -16.7 °C 34533.8 hPa North 54.4 km/h 54.4 km/h 55 % 0 mm 601.0 W/m2 CLR
13:41 -11.6 °C -16.6 °C 34520.3 hPa North 38.8 km/h 38.8 km/h 54 % 0 mm 598.0 W/m2 CLR
13:46 -11.6 °C -16.7 °C 34533.8 hPa NNW 65.5 km/h 65.5 km/h 53 % 0 mm 592.0 W/m2 CLR
13:51 -11.6 °C -16.9 °C 34533.8 hPa North 62.6 km/h 62.6 km/h 52 % 0 mm 591.0 W/m2 CLR
13:56 -11.6 °C -16.7 °C 34520.3 hPa NNW 50.7 km/h 50.7 km/h 53 % 0 mm 589.0 W/m2 CLR
14:01 -11.6 °C -16.7 °C 34510.1 hPa North 51.8 km/h 51.8 km/h 53 % 0 mm 585.0 W/m2 CLR
14:06 -11.6 °C -17.1 °C 34510.1 hPa NNW 71.5 km/h 71.5 km/h 51 % 0 mm 578.0 W/m2 CLR
14:11 -11.6 °C -17.1 °C 34510.1 hPa NW 74.5 km/h 74.5 km/h 51 % 0 mm 578.0 W/m2 CLR
14:16 -11.6 °C -16.9 °C 34510.1 hPa North 72.6 km/h 72.6 km/h 52 % 0 mm 575.0 W/m2 CLR
14:21 -11.6 °C -17.1 °C 34510.1 hPa North 80.5 km/h 80.5 km/h 51 % 0 mm 570.0 W/m2 CLR
14:26 -11.6 °C -16.9 °C 34496.6 hPa NNW 68.6 km/h 68.6 km/h 52 % 0 mm 563.0 W/m2 CLR
14:31 -11.6 °C -16.7 °C 34496.6 hPa NNW 59.5 km/h 59.5 km/h 53 % 0 mm 557.0 W/m2 CLR
14:36 -11.6 °C -17.1 °C 34496.6 hPa NNW 68.6 km/h 68.6 km/h 51 % 0 mm 555.0 W/m2 CLR
14:41 -11.6 °C -17.2 °C 34496.6 hPa NNW 68.6 km/h 68.6 km/h 50 % 0 mm 496.0 W/m2 CLR
14:46 -11.9 °C -17.6 °C 34496.6 hPa North 80.5 km/h 80.5 km/h 49 % 0 mm 534.0 W/m2 CLR
14:51 -11.6 °C -17.1 °C 34496.6 hPa North 71.5 km/h 71.5 km/h 51 % 0 mm 547.0 W/m2 CLR
14:56 -11.6 °C -17.1 °C 34496.6 hPa North 68.6 km/h 68.6 km/h 51 % 0 mm 538.0 W/m2 CLR
15:01 -11.6 °C -17.1 °C 34496.6 hPa NNW 59.5 km/h 59.5 km/h 51 % 0 mm 522.0 W/m2 CLR
15:06 -11.6 °C -17.1 °C 34496.6 hPa NNW 59.5 km/h 59.5 km/h 51 % 0 mm 513.0 W/m2 CLR
15:11 -11.6 °C -17.1 °C 34496.6 hPa NNW 59.5 km/h 59.5 km/h 51 % 0 mm 499.0 W/m2 CLR
15:16 -11.6 °C -17.2 °C 34496.6 hPa North 75.2 km/h 75.2 km/h 50 % 0 mm 489.0 W/m2 CLR
15:21 -11.6 °C -17.1 °C 34496.6 hPa NNW 50.7 km/h 50.7 km/h 51 % 0 mm 476.0 W/m2 CLR
15:26 -11.6 °C -17.1 °C 34496.6 hPa NNW 50.7 km/h 50.7 km/h 51 % 0 mm 469.0 W/m2 CLR
15:31 -11.6 °C -17.3 °C 34496.6 hPa NNW 80.5 km/h 80.5 km/h 49 % 0 mm 455.0 W/m2 CLR
15:36 -11.6 °C -17.2 °C 34510.1 hPa North 62.6 km/h 62.6 km/h 50 % 0 mm 446.0 W/m2 CLR
15:41 -11.9 °C -17.6 °C 34510.1 hPa NW 77.4 km/h 77.4 km/h 49 % 0 mm 434.0 W/m2 CLR
15:46 -11.9 °C -17.6 °C 34496.6 hPa NW 59.5 km/h 59.5 km/h 49 % 0 mm 424.0 W/m2 CLR
15:51 -11.9 °C -17.4 °C 34496.6 hPa NNW 41.7 km/h 41.7 km/h 50 % 0 mm 413.0 W/m2 CLR
15:56 -11.6 °C -17.7 °C 34496.6 hPa NNW 62.6 km/h 62.6 km/h 47 % 0 mm 399.0 W/m2 CLR
16:01 -11.9 °C -18.3 °C 34496.6 hPa NW 68.6 km/h 68.6 km/h 45 % 0 mm 385.0 W/m2 CLR
16:06 -11.9 °C -18.1 °C 34496.6 hPa NW 62.6 km/h 62.6 km/h 46 % 0 mm 376.0 W/m2 CLR
16:11 -11.9 °C -18.3 °C 34496.6 hPa NNW 77.4 km/h 77.4 km/h 45 % 0 mm 362.0 W/m2 CLR
16:16 -11.9 °C -18.1 °C 34510.1 hPa NNW 51.8 km/h 51.8 km/h 46 % 0 mm 350.0 W/m2 CLR
16:21 -11.9 °C -18.3 °C 34496.6 hPa NW 57 km/h 57 km/h 45 % 0 mm 334.0 W/m2 CLR
16:26 -12.2 °C -18.4 °C 34510.1 hPa NNW 62.1 km/h 62.1 km/h 46 % 0 mm 320.0 W/m2 CLR
16:31 -12.2 °C -18.4 °C 34510.1 hPa North 68.6 km/h 68.6 km/h 46 % 0 mm 306.0 W/m2 CLR
16:36 -12.2 °C -18.4 °C 34510.1 hPa NNW 68.6 km/h 68.6 km/h 46 % 0 mm 294.0 W/m2 CLR
16:41 -12.2 °C -18.4 °C 34510.1 hPa North 68.6 km/h 68.6 km/h 46 % 0 mm 279.0 W/m2 CLR
16:46 -12.2 °C -18.2 °C 34510.1 hPa NNW 50.7 km/h 50.7 km/h 47 % 0 mm 260.0 W/m2 CLR
16:51 -12.6 °C -18.4 °C 34510.1 hPa NNW 50.7 km/h 50.7 km/h 48 % 0 mm 246.0 W/m2 CLR
16:56 -12.6 °C -18.5 °C 34510.1 hPa NNW 56.6 km/h 56.6 km/h 47 % 0 mm 229.0 W/m2 CLR
17:01 -12.6 °C -18.5 °C 34510.1 hPa North 50.7 km/h 50.7 km/h 47 % 0 mm 211.0 W/m2 CLR
17:06 -12.8 °C -18.7 °C 34510.1 hPa North 59.5 km/h 59.5 km/h 48 % 0 mm 193.0 W/m2 CLR
17:11 -12.8 °C -18.5 °C 34510.1 hPa NNW 69.8 km/h 69.8 km/h 49 % 0 mm 172.0 W/m2 CLR
17:16 -12.8 °C -18.8 °C 34510.1 hPa NNW 68.6 km/h 68.6 km/h 47 % 0 mm 156.0 W/m2 CLR
17:21 -12.8 °C -18.9 °C 34520.3 hPa NNW 41.7 km/h 41.7 km/h 46 % 0 mm 141.0 W/m2 CLR
17:26 -12.8 °C -19.3 °C 34520.3 hPa NNW 56.6 km/h 56.6 km/h 44 % 0 mm 125.0 W/m2 CLR
17:31 -13.2 °C -19.4 °C 34520.3 hPa North 68.6 km/h 68.6 km/h 45 % 0 mm 105.0 W/m2 CLR
17:36 -13.2 °C -19.4 °C 34520.3 hPa NNW 65.5 km/h 65.5 km/h 45 % 0 mm 83.0 W/m2 CLR
17:41 -13.2 °C -19.1 °C 34520.3 hPa NNW 32.8 km/h 39.6 km/h 47 % 0 mm 69.0 W/m2 FEW
17:46 -13.2 °C -18.9 °C 34520.3 hPa North 50.7 km/h 50.7 km/h 48 % 0 mm 58.0 W/m2 SCT
17:51 -13.2 °C -18.9 °C 34520.3 hPa NNW 59.5 km/h 59.5 km/h 48 % 0 mm 46.0 W/m2 SCT
17:56 -13.2 °C -18.9 °C 34520.3 hPa NNW 62.6 km/h 62.6 km/h 48 % 0 mm 35.0 W/m2 BKN
18:01 -13.4 °C -19.1 °C 34520.3 hPa NNW 59.5 km/h 59.5 km/h 49 % 0 mm 25.0 W/m2 BKN
18:07 -13.4 °C -19.1 °C 34533.8 hPa North 50.7 km/h 50.7 km/h 49 % 0 mm 18.0 W/m2 BKN
18:12 -13.4 °C -19.1 °C 34533.8 hPa NNW 50.7 km/h 50.7 km/h 49 % 0 mm 12.0 W/m2 BKN
18:17 -13.8 °C -19.2 °C 34520.3 hPa NNW 68.6 km/h 68.6 km/h 50 % 0 mm 9.0 W/m2 BKN
18:22 -13.8 °C -18.7 °C 34533.8 hPa NNW 71.5 km/h 71.5 km/h 53 % 0 mm 7.0 W/m2 BKN
18:27 -13.8 °C -18.4 °C 34533.8 hPa NNW 71.5 km/h 71.5 km/h 55 % 0 mm 5.0 W/m2 OVC
18:32 -13.8 °C -18.4 °C 34533.8 hPa NW 53.6 km/h 53.6 km/h 55 % 0 mm 0.0 W/m2 OVC
18:37 -14.1 °C -18.7 °C 34533.8 hPa NNW 68.6 km/h 68.6 km/h 55 % 0 mm 0.0 W/m2 OVC
18:42 -14.1 °C -18.7 °C 34533.8 hPa NW 44.7 km/h 44.7 km/h 55 % 0 mm 0.0 W/m2 CLR
18:47 -14.1 °C -18.7 °C 34533.8 hPa NNW 50.7 km/h 50.7 km/h 55 % 0 mm 0.0 W/m2 CLR
18:52 -14.1 °C -18.6 °C 34544 hPa NNW 47.6 km/h 47.6 km/h 56 % 0 mm 0.0 W/m2 CLR
18:57 -14.1 °C -18.6 °C 34544 hPa NNW 59.5 km/h 59.5 km/h 56 % 0 mm 0.0 W/m2 CLR
19:02 -14.4 °C -18.8 °C 34544 hPa NNW 44.7 km/h 44.7 km/h 57 % 0 mm 0.0 W/m2 CLR
19:07 -14.4 °C -18.7 °C 34554.1 hPa North 38.8 km/h 38.8 km/h 58 % 0 mm 0.0 W/m2 CLR
19:12 -14.4 °C -18.7 °C 34554.1 hPa NNW 56.6 km/h 56.6 km/h 58 % 0 mm 0.0 W/m2 CLR
19:17 -14.4 °C -18.7 °C 34567.7 hPa North 50.7 km/h 50.7 km/h 58 % 0 mm 0.0 W/m2 CLR
19:22 -14.4 °C -18.7 °C 34567.7 hPa NNW 53.6 km/h 53.6 km/h 58 % 0 mm 0.0 W/m2 CLR
19:27 -14.4 °C -18.5 °C 34567.7 hPa NNW 44.7 km/h 44.7 km/h 59 % 0 mm 0.0 W/m2 CLR
19:32 -14.7 °C -18.8 °C 34567.7 hPa North 41.7 km/h 41.7 km/h 59 % 0 mm 0.0 W/m2 CLR
19:37 -14.7 °C -18.7 °C 34577.8 hPa NNW 53.6 km/h 53.6 km/h 60 % 0 mm 0.0 W/m2 CLR
19:42 -14.7 °C -18.7 °C 34577.8 hPa North 59.5 km/h 59.5 km/h 60 % 0 mm 0.0 W/m2 CLR
19:47 -14.7 °C -18.7 °C 34577.8 hPa NNW 53.6 km/h 53.6 km/h 60 % 0 mm 0.0 W/m2 CLR
19:52 -14.7 °C -18.7 °C 34591.4 hPa North 41.7 km/h 41.7 km/h 60 % 0 mm 0.0 W/m2 CLR
19:57 -14.7 °C -18.6 °C 34591.4 hPa NNW 44.7 km/h 44.7 km/h 61 % 0 mm 0.0 W/m2 CLR
20:02 -14.7 °C -18.6 °C 34591.4 hPa NNW 38.8 km/h 38.8 km/h 61 % 0 mm 0.0 W/m2 CLR
20:07 -15 °C -18.7 °C 34591.4 hPa North 47.6 km/h 47.6 km/h 62 % 0 mm 0.0 W/m2 CLR
20:12 -15 °C -18.7 °C 34591.4 hPa North 38.8 km/h 38.8 km/h 62 % 0 mm 0.0 W/m2 CLR
20:17 -15 °C -18.6 °C 34591.4 hPa North 35.7 km/h 35.7 km/h 63 % 0 mm 0.0 W/m2 CLR
20:22 -15 °C -18.6 °C 34601.5 hPa NNW 35.7 km/h 35.7 km/h 63 % 0 mm 0.0 W/m2 CLR
20:27 -15 °C -18.6 °C 34601.5 hPa NNW 32.8 km/h 32.8 km/h 63 % 0 mm 0.0 W/m2 CLR
20:32 -15 °C -18.6 °C 34601.5 hPa NNW 35.7 km/h 35.7 km/h 63 % 0 mm 0.0 W/m2 CLR
20:37 -15.3 °C -18.8 °C 34601.5 hPa NNW 29.8 km/h 29.8 km/h 64 % 0 mm 0.0 W/m2 CLR
20:42 -15.3 °C -18.7 °C 34601.5 hPa NNW 36.2 km/h 36.2 km/h 65 % 0 mm 0.0 W/m2 CLR
20:47 -15.3 °C -18.7 °C 34601.5 hPa NNW 32.8 km/h 32.8 km/h 65 % 0 mm 0.0 W/m2 CLR
20:52 -15.3 °C -18.7 °C 34601.5 hPa NW 41.7 km/h 41.7 km/h 65 % 0 mm 0.0 W/m2 CLR
20:57 -15.3 °C -18.7 °C 34601.5 hPa NNW 38.8 km/h 38.8 km/h 65 % 0 mm 0.0 W/m2 CLR
21:02 -15.3 °C -18.7 °C 34601.5 hPa NW 50.7 km/h 50.7 km/h 65 % 0 mm 0.0 W/m2 CLR
21:07 -15.3 °C -18.7 °C 34611.7 hPa NW 41.7 km/h 41.7 km/h 65 % 0 mm 0.0 W/m2 CLR
21:12 -15.3 °C -18.7 °C 34611.7 hPa NW 41.7 km/h 41.7 km/h 65 % 0 mm 0.0 W/m2 CLR
21:17 -15.3 °C -18.7 °C 34611.7 hPa NNW 44.7 km/h 44.7 km/h 65 % 0 mm 0.0 W/m2 CLR
21:22 -15.3 °C -18.5 °C 34611.7 hPa North 41.7 km/h 41.7 km/h 66 % 0 mm 0.0 W/m2 CLR
21:27 -15.3 °C -18.5 °C 34611.7 hPa NNW 50.7 km/h 50.7 km/h 66 % 0 mm 0.0 W/m2 CLR
21:32 -15.3 °C -18.5 °C 34611.7 hPa NNW 41.7 km/h 41.7 km/h 66 % 0 mm 0.0 W/m2 CLR
21:37 -15.6 °C -18.7 °C 34625.2 hPa NNW 32.8 km/h 32.8 km/h 67 % 0 mm 0.0 W/m2 CLR
21:42 -15.6 °C -18.7 °C 34625.2 hPa NNW 47.6 km/h 47.6 km/h 67 % 0 mm 0.0 W/m2 CLR
21:47 -15.6 °C -18.6 °C 34625.2 hPa NW 26.9 km/h 26.9 km/h 68 % 0 mm 0.0 W/m2 CLR
21:52 -15.6 °C -18.6 °C 34625.2 hPa NW 35.7 km/h 35.7 km/h 68 % 0 mm 0.0 W/m2 CLR
21:57 -15.6 °C -18.5 °C 34625.2 hPa NNW 41.7 km/h 41.7 km/h 69 % 0 mm 0.0 W/m2 CLR
22:02 -15.9 °C -18.8 °C 34625.2 hPa NW 47.6 km/h 47.6 km/h 69 % 0 mm 0.0 W/m2 CLR
22:07 -15.6 °C -18.5 °C 34625.2 hPa NW 29.8 km/h 29.8 km/h 69 % 0 mm 0.0 W/m2 CLR
22:12 -15.9 °C -18.9 °C 34625.2 hPa NW 35.7 km/h 35.7 km/h 68 % 0 mm 0.0 W/m2 CLR
22:17 -15.9 °C -18.9 °C 34635.4 hPa NW 32.8 km/h 32.8 km/h 68 % 0 mm 0.0 W/m2 CLR
22:22 -15.9 °C -18.9 °C 34625.2 hPa NNW 32.8 km/h 32.8 km/h 68 % 0 mm 0.0 W/m2 CLR
22:27 -15.9 °C -18.9 °C 34635.4 hPa NW 35.7 km/h 35.7 km/h 68 % 0 mm 0.0 W/m2 CLR
22:32 -15.9 °C -18.9 °C 34635.4 hPa NW 41.7 km/h 41.7 km/h 68 % 0 mm 0.0 W/m2 CLR
22:37 -15.9 °C -18.9 °C 34635.4 hPa NW 35.7 km/h 35.7 km/h 68 % 0 mm 0.0 W/m2 CLR
22:43 -15.9 °C -19 °C 34635.4 hPa NW 38.8 km/h 38.8 km/h 67 % 0 mm 0.0 W/m2 CLR
22:48 -15.9 °C -19 °C 34635.4 hPa WNW 41.7 km/h 41.7 km/h 67 % 0 mm 0.0 W/m2 CLR
22:53 -15.9 °C -18.9 °C 34635.4 hPa WNW 35.7 km/h 35.7 km/h 68 % 0 mm 0.0 W/m2 CLR
22:58 -15.9 °C -18.9 °C 34635.4 hPa NW 44.7 km/h 44.7 km/h 68 % 0 mm 0.0 W/m2 CLR
23:03 -16.2 °C -19.1 °C 34645.6 hPa NW 38.8 km/h 38.8 km/h 69 % 0 mm 0.0 W/m2 CLR
23:08 -16.2 °C -19.1 °C 34645.6 hPa NW 31.1 km/h 31.1 km/h 69 % 0 mm 0.0 W/m2 CLR
23:13 -16.2 °C -19.1 °C 34645.6 hPa NW 29.8 km/h 29.8 km/h 69 % 0 mm 0.0 W/m2 CLR
23:18 -16.2 °C -19 °C 34645.6 hPa NW 32.8 km/h 32.8 km/h 70 % 0 mm 0.0 W/m2 CLR
23:23 -16.2 °C -19 °C 34645.6 hPa NW 31.1 km/h 31.1 km/h 70 % 0 mm 0.0 W/m2 CLR
23:28 -16.2 °C -19 °C 34645.6 hPa West 29.8 km/h 29.8 km/h 70 % 0 mm 0.0 W/m2 CLR
23:33 -16.2 °C -19 °C 34645.6 hPa WNW 29.8 km/h 29.8 km/h 70 % 0 mm 0.0 W/m2 CLR
23:38 -16.2 °C -19 °C 34659.1 hPa NW 29.8 km/h 29.8 km/h 70 % 0 mm 0.0 W/m2 CLR
23:43 -16.2 °C -18.8 °C 34659.1 hPa NW 33.6 km/h 33.6 km/h 71 % 0 mm 0.0 W/m2 CLR
23:48 -16.2 °C -18.8 °C 34659.1 hPa NNW 26.9 km/h 26.9 km/h 71 % 0 mm 0.0 W/m2 CLR
23:53 -16.2 °C -18.8 °C 34659.1 hPa NW 31.1 km/h 31.1 km/h 71 % 0 mm 0.0 W/m2 CLR
23:58 -16.2 °C -18.8 °C 34659.1 hPa NW 23.8 km/h 23.8 km/h 71 % 0 mm 0.0 W/m2 CLR
Lo Temps de Massalio
Compliments of Weather Underground - 1.25 mb